Archival Weather

NSFA McMurdo Sound

NSFA McMurdo Sound, Antarctica (NZCM)

Report from: Saturday, February 24, 2024 5:55 PM UTC
Current time: Wednesday, April 24, 2024 6:51 PM UTC

Current weather – Weather history – Daily summaries
Weather forecast

Temperature-13.6°C (7.5°F)
Wind chill-21.6°C (-6.9°F)
Dew point-29.4°C (-20.9°F)
Winds 9 kts (4.6 m/s, 10.4 mph) East (80°)
Visibility6.2 mi. (10 km)
Clouds Sky clear
Altimeter29.15 in.Hg (987 mB)
Relative humidity25 %
Density altitude-6,091 ft. (-1,856 m)
Sea-level pressure108.8 kPa (1088 mB, 32.12 in.Hg)
Max temp last 6 hours-13.6°C (7.5°F)
Min temp last 6 hours-16.6°C (2.1°F)
Remarks Fully automated report
Automated weather observing station with precipitation discriminator
Pressure falling
Flight conditions Visual Meteorological Conditions
Raw dataNZCM 241755Z AUTO 08009KT 9999 CLR M14/M29 A2915 RMK AO2 SLP876 T11361294 11136 21166 57006
An error has occurred. This application may no longer respond until reloaded. Reload 🗙